Mount Laguna, California
Current Conditions -  °F | °C
As of 4:53 PM on Monday 24 Nov 2014 (Local Time) from KRNM Reporting Station
Clear Clear  
Wind Chill: 65°   Ceiling: Unl
Heat Index: 65°   Visibility: 10mi
Dew Point: 11°   Wind: 14mph
Humidity: 12%   Direction: 90°E
Pressure: 30.23"   Gusts: NA
Location:  32.87°N, 116.42°W
Report Text: KRNM 250053Z 09012KT 10SM CLR 18/M12 A3023 RMK AO2 SLP233 T01831117
Loading
Personal Weather Stations






























Interactive Weather Map New forecast layout! Learn more

10-Day Weather Forecast

Advertisements
Track Severe Weather on mobile